Latest Coastal Weather Observations for Newcastle Nobbys

IDN60701

Issued at 11:45 am EST Friday 19 September 2014 (issued every 10 minutes, with the page automatically refreshed every 10 minutes)

About coastal observations | Map of coastal stations | Coastal observations for NSW | Marine services | Other Formats
Station Details ID: 061055 Name: NEWCASTLE NOBBYS SIGNAL STATION AWS Lat: -32.92 Lon: 151.80 Height: 33.0 m
Data from the previous 72 hours. | See also: Recent months at Newcastle Nobbys
Date/Time
EST
Temp

°C
Wind Pressure Rain
since 9am
mm
Weather Cloud Vis
km
Sea
Height
m
Swell
Dir
 
Speed
knots
Gust
knots
hPa Trend Height
m
Period
s
Dir
19/11:30am 16.6 SE 5 7 - - 0.0 - - - - - - -
19/11:00am 16.5 SE 5 7 - - 0.0 - - - - - - -
19/10:30am 16.2 SE 4 5 - - 0.0 - - - - - - -
19/10:00am 15.0 SSE 4 7 - - 0.0 - - - - - - -
19/09:30am 15.7 S 5 6 - - 0.0 - - - - - - -
19/09:00am 15.8 WNW 4 5 - - 0.0 - - - - - - -
19/08:30am 14.0 WNW 6 8 - - 0.0 - - - - - - -
19/08:00am 12.6 NW 7 9 - - 0.0 - - - - - - -
19/07:30am 11.4 WNW 7 8 - - 0.0 - - - - - - -
19/07:00am 10.2 WNW 7 9 - - 0.0 - - - - - - -
19/06:30am 9.8 WNW 8 10 - - 0.0 - - - - - - -
19/06:00am 9.3 WNW 5 7 - - 0.0 - - - - - - -
19/05:30am 9.3 WNW 5 7 - - 0.0 - - - - - - -
19/05:00am 9.8 WNW 6 7 - - 0.0 - - - - - - -
19/04:30am 9.7 WNW 7 8 - - 0.0 - - - - - - -
19/04:00am 10.1 WNW 6 7 - - 0.0 - - - - - - -
19/03:30am 10.4 NW 6 8 - - 0.0 - - - - - - -
19/03:00am 10.6 NW 5 6 - - 0.0 - - - - - - -
19/02:30am 11.2 NW 4 5 - - 0.0 - - - - - - -
19/02:00am 11.4 NW 5 6 - - 0.0 - - - - - - -
19/01:30am 11.7 NW 5 5 - - 0.0 - - - - - - -
19/01:00am 12.2 WNW 4 5 - - 0.0 - - - - - - -
19/12:30am 12.4 NW 5 6 - - 0.0 - - - - - - -
19/12:00am 12.8 W 6 8 - - 0.0 - - - - - - -
 
Date/Time
EST
Temp

°C
Wind Pressure Rain
since 9am
mm
Weather Cloud Vis
km
Sea
Height
m
Swell
Dir
 
Speed
knots
Gust
knots
hPa Trend Height
m
Period
s
Dir
18/11:30pm 12.9 W 8 9 - - 0.0 - - - - - - -
18/11:00pm 13.5 W 6 7 - - 0.0 - - - - - - -
18/10:30pm 13.2 W 5 6 - - 0.0 - - - - - - -
18/10:00pm 13.3 W 6 7 - - 0.0 - - - - - - -
18/09:30pm 13.9 W 7 7 - - 0.0 - - - - - - -
18/09:00pm 15.5 SSW 6 10 - - 0.0 - - - - - - -
18/08:30pm 15.5 S 8 11 - - 0.0 - - - - - - -
18/08:00pm 15.5 S 8 10 - - 0.0 - - - - - - -
18/07:30pm 15.5 S 10 13 - - 0.0 - - - - - - -
18/07:00pm 15.4 SSE 10 13 - - 0.0 - - - - - - -
18/06:30pm 15.6 S 12 15 - - 0.0 - - - - - - -
18/06:00pm 15.6 S 11 14 - - 0.0 - - - - - - -
18/05:30pm 15.5 SSE 12 16 - - 0.0 - - - - - - -
18/05:00pm 15.8 SSE 14 17 - - 0.0 - - - - - - -
18/04:30pm 15.9 SSE 13 17 - - 0.0 - - - - - - -
18/04:00pm 16.3 SSE 14 18 - - 0.0 - - - - - - -
18/03:30pm 16.2 SSE 15 17 - - 0.0 - - - - - - -
18/03:00pm 16.6 SSE 14 17 - - 0.0 - - - - - - -
18/02:30pm 16.4 SSE 15 19 - - 0.0 - - - - - - -
18/02:00pm 16.1 S 15 18 - - 0.0 - - - - - - -
18/01:30pm 16.2 S 15 17 - - 0.0 - - - - - - -
18/01:00pm 16.1 S 15 19 - - 0.0 - - - - - - -
18/12:30pm 16.7 S 16 19 - - 0.0 - - - - - - -
18/12:00pm 16.7 S 14 16 - - 0.0 - - - - - - -
18/11:30am 17.3 SSW 12 15 - - 0.0 - - - - - - -
18/11:00am 17.7 WSW 5 7 - - 0.0 - - - - - - -
18/10:30am 18.5 WNW 9 13 - - 0.0 - - - - - - -
18/10:00am 17.3 W 12 19 - - 0.0 - - - - - - -
18/09:30am 16.5 NW 10 14 - - 0.0 - - - - - - -
18/09:00am 16.1 WNW 14 17 - - 0.0 - - - - - - -
18/08:30am 15.3 WNW 13 16 - - 0.0 - - - - - - -
18/08:00am 14.6 WNW 13 17 - - 0.0 - - - - - - -
18/07:30am 13.9 WNW 11 14 - - 0.0 - - - - - - -
18/07:00am 12.4 NW 9 12 - - 0.0 - - - - - - -
18/06:30am 12.3 NW 10 12 - - 0.0 - - - - - - -
18/06:00am 12.1 WNW 9 11 - - 0.0 - - - - - - -
18/05:30am 12.4 WNW 10 11 - - 0.0 - - - - - - -
18/05:00am 12.5 W 8 10 - - 0.0 - - - - - - -
18/04:30am 12.8 WNW 10 12 - - 0.0 - - - - - - -
18/04:00am 13.1 WNW 8 12 - - 0.0 - - - - - - -
18/03:30am 13.4 WNW 9 12 - - 0.0 - - - - - - -
18/03:00am 13.8 W 9 11 - - 0.0 - - - - - - -
18/02:30am 14.1 WNW 8 10 - - 0.0 - - - - - - -
18/02:00am 14.6 WNW 11 15 - - 0.0 - - - - - - -
18/01:30am 14.9 W 11 14 - - 0.0 - - - - - - -
18/01:00am 15.1 W 9 11 - - 0.0 - - - - - - -
18/12:30am 15.6 W 11 16 - - 0.0 - - - - - - -
18/12:00am 15.7 W 7 9 - - 0.0 - - - - - - -
 
Date/Time
EST
Temp

°C
Wind Pressure Rain
since 9am
mm
Weather Cloud Vis
km
Sea
Height
m
Swell
Dir
 
Speed
knots
Gust
knots
hPa Trend Height
m
Period
s
Dir
17/11:30pm 15.9 WSW 7 10 - - 0.0 - - - - - - -
17/11:00pm 16.1 WSW 6 9 - - 0.0 - - - - - - -
17/10:30pm 16.1 W 7 9 - - 0.0 - - - - - - -
17/10:00pm 16.3 WNW 8 10 - - 0.0 - - - - - - -
17/09:30pm 16.8 W 8 10 - - 0.0 - - - - - - -
17/09:00pm 17.0 WNW 9 12 - - 0.0 - - - - - - -
17/08:30pm 17.2 WNW 8 11 - - 0.0 - - - - - - -
17/08:00pm 17.4 WNW 8 11 - - 0.0 - - - - - - -
17/07:30pm 18.2 W 11 14 - - 0.0 - - - - - - -
17/07:00pm 18.8 W 15 21 - - 0.0 - - - - - - -
17/06:30pm 18.9 W 10 14 - - 0.0 - - - - - - -
17/06:00pm 19.6 WSW 14 18 - - 0.0 - - - - - - -
17/05:30pm 20.3 WSW 8 13 - - 0.0 - - - - - - -
17/05:00pm 20.7 WSW 10 15 - - 0.0 - - - - - - -
17/04:30pm 21.6 WSW 10 16 - - 0.0 - - - - - - -
17/04:00pm 21.9 W 15 19 - - 0.0 - - - - - - -
17/03:30pm 21.7 W 14 22 - - 0.0 - - - - - - -
17/03:00pm 21.8 WNW 11 16 - - 0.0 - - - - - - -
17/02:30pm 21.6 WNW 11 16 - - 0.0 - - - - - - -
17/02:00pm 22.3 W 11 21 - - 0.0 - - - - - - -
17/01:30pm 21.4 W 13 19 - - 0.0 - - - - - - -
17/01:00pm 22.4 W 12 23 - - 0.0 - - - - - - -
17/12:30pm 21.6 W 11 17 - - 0.0 - - - - - - -
17/12:00pm 21.2 W 13 18 - - 0.0 - - - - - - -
17/11:30am 20.6 W 13 17 - - 0.0 - - - - - - -
17/11:00am 20.8 W 11 18 - - 0.0 - - - - - - -
17/10:30am 19.8 WNW 12 18 - - 0.0 - - - - - - -
17/10:00am 19.8 W 11 15 - - 0.0 - - - - - - -
17/09:30am 18.7 W 13 18 - - 0.0 - - - - - - -
17/09:00am 18.1 W 10 12 - - - - - - - - - -
17/08:30am 16.7 NW 10 13 - - - - - - - - - -
17/08:00am 15.9 NW 9 13 - - - - - - - - - -
17/07:30am 14.9 WNW 9 13 - - - - - - - - - -
17/07:00am 13.9 NW 11 15 - - - - - - - - - -
17/06:30am 13.9 NNW 8 13 - - - - - - - - - -
17/06:00am 13.4 NNW 5 7 - - - - - - - - - -
17/05:30am 13.7 NW 6 8 - - - - - - - - - -
17/05:00am 14.0 NW 11 14 - - - - - - - - - -
17/04:30am 14.4 NW 14 18 - - - - - - - - - -
17/04:00am 14.7 NW 13 17 - - - - - - - - - -
17/03:30am 14.9 NW 15 19 - - - - - - - - - -
17/03:00am 15.3 NW 15 23 - - 0.0 - - - - - - -
17/02:30am 15.5 NW 16 21 - - - - - - - - - -
17/02:00am 15.8 NW 16 21 - - - - - - - - - -
17/01:30am 16.0 NW 15 19 - - - - - - - - - -
17/01:00am 16.4 WNW 14 18 - - - - - - - - - -
17/12:30am 16.9 WNW 15 20 - - - - - - - - - -
17/12:00am 17.2 WNW 15 20 - - - - - - - - - -
 
Date/Time
EST
Temp

°C
Wind Pressure Rain
since 9am
mm
Weather Cloud Vis
km
Sea
Height
m
Swell
Dir
 
Speed
knots
Gust
knots
hPa Trend Height
m
Period
s
Dir
16/11:30pm 17.5 WNW 15 22 - - - - - - - - - -
16/11:00pm 17.9 W 14 18 - - - - - - - - - -
16/10:30pm 18.5 W 17 22 - - - - - - - - - -
16/10:00pm 18.9 W 19 24 - - - - - - - - - -
16/09:30pm 19.6 W 16 23 - - - - - - - - - -
16/09:00pm 20.0 W 19 26 - - 0.0 - - - - - - -
16/08:30pm 20.3 W 13 17 - - - - - - - - - -
16/08:00pm 20.3 WNW 12 18 - - - - - - - - - -
16/07:30pm 20.9 WNW 14 18 - - - - - - - - - -
16/07:00pm 21.4 WNW 14 18 - - - - - - - - - -
16/06:30pm 22.1 WNW 11 17 - - - - - - - - - -
16/06:00pm 22.6 WNW 12 16 - - - - - - - - - -
16/05:30pm 23.1 NW 11 16 - - - - - - - - - -
16/05:00pm 24.3 WNW 16 24 - - - - - - - - - -
16/04:30pm 24.9 WNW 14 19 - - - - - - - - - -
16/04:00pm 25.3 NW 16 22 - - - - - - - - - -
16/03:44pm 25.3 WNW 20 31 - - - - - - - - - -
16/03:30pm 25.5 WNW 17 23 - - - - - - - - - -
16/03:03pm 25.6 NW 15 25 - - - - - - - - - -
16/03:00pm 25.7 NW 14 22 - - - - - - - - - -
16/02:30pm 21.9 NNE 4 13 - - 0.0 - - - - - - -
16/02:00pm 21.6 E 10 12 - - 0.0 - - - - - - -
16/01:30pm 21.7 E 7 10 - - 0.0 - - - - - - -
16/01:00pm 21.1 ESE 7 8 - - 0.0 - - - - - - -
16/12:30pm 20.7 SE 4 5 - - 0.0 - - - - - - -
16/12:00pm 20.9 CALM 0 2 - - 0.0 - - - - - - -

Other Formats:

Comma delimited format used in spreadsheet applications
http://www.bom.gov.au/fwo/IDN60701/IDN60701.94774.axf

JavaScript Object Notation format (JSON) in row-major order
http://www.bom.gov.au/fwo/IDN60701/IDN60701.94774.json